Time;durP1;ratioP1;P1;durP2;ratioP2;P2;SDS_P1;SDS_P2;PMS_P1;PMS_P2;Temp;Humidity;BMP_temperature;BMP_pressure;BME280_temperature;BME280_humidity;BME280_pressure;Samples;Min_cycle;Max_cycle;Signal;HPM_P1;HPM_P2
2021/07/03 00:00:07;;;;;;;16.45;10.13;;;13.60;99.50;;;;;;5080954;28;20064;-73
2021/07/03 00:02:33;;;;;;;14.40;10.80;;;13.60;99.40;;;;;;5084270;28;20032;-73
2021/07/03 00:05:02;;;;;;;13.50;10.27;;;13.60;99.50;;;;;;5078833;28;20036;-73
2021/07/03 00:07:28;;;;;;;16.77;10.60;;;13.60;99.70;;;;;;5066039;28;20035;-73
2021/07/03 00:09:54;;;;;;;19.35;10.45;;;13.50;99.90;;;;;;5079034;28;20594;-73
2021/07/03 00:12:20;;;;;;;16.05;11.02;;;13.50;99.60;;;;;;5080537;28;20127;-73
2021/07/03 00:14:46;;;;;;;19.30;11.40;;;13.50;99.60;;;;;;5034505;28;20584;-73
2021/07/03 00:17:12;;;;;;;14.57;11.15;;;13.50;99.80;;;;;;5076120;28;20534;-73
2021/07/03 00:19:38;;;;;;;10.73;7.95;;;13.40;99.90;;;;;;5083369;28;20047;-73
2021/07/03 00:22:04;;;;;;;13.32;8.40;;;13.40;99.80;;;;;;5082960;28;20044;-74
2021/07/03 00:24:30;;;;;;;11.70;8.07;;;13.40;99.70;;;;;;5080214;28;20036;-73
2021/07/03 00:26:56;;;;;;;6.32;5.20;;;13.40;99.70;;;;;;5082882;28;20039;-73
2021/07/03 00:29:22;;;;;;;4.93;3.70;;;13.40;99.80;;;;;;5095211;28;20032;-73
2021/07/03 00:31:47;;;;;;;11.55;6.25;;;13.30;99.90;;;;;;5082522;28;20047;-72
2021/07/03 00:34:14;;;;;;;9.30;6.30;;;13.30;99.90;;;;;;5083778;28;20032;-73
2021/07/03 00:36:40;;;;;;;9.35;6.03;;;13.20;99.90;;;;;;5082487;28;20046;-73
2021/07/03 00:39:08;;;;;;;6.90;5.22;;;13.20;99.90;;;;;;5083097;28;20101;-73
2021/07/03 00:41:33;;;;;;;10.70;7.18;;;13.20;99.90;;;;;;5082509;28;20118;-74
2021/07/03 00:43:59;;;;;;;9.20;6.15;;;13.20;99.90;;;;;;5064421;28;20040;-74
2021/07/03 00:46:25;;;;;;;15.02;10.20;;;13.20;99.90;;;;;;5084080;28;20040;-73
2021/07/03 00:48:51;;;;;;;12.38;9.60;;;13.10;99.90;;;;;;5083137;28;20040;-74
2021/07/03 00:51:17;;;;;;;11.10;7.65;;;13.10;99.90;;;;;;5075542;28;20047;-73
2021/07/03 00:53:43;;;;;;;10.38;9.05;;;13.00;99.90;;;;;;5084495;28;20056;-74
2021/07/03 00:56:09;;;;;;;9.27;7.38;;;13.00;99.90;;;;;;5063520;28;20063;-74
2021/07/03 00:58:35;;;;;;;9.18;7.40;;;13.00;99.90;;;;;;5080040;28;20058;-74
2021/07/03 01:01:01;;;;;;;9.80;7.80;;;12.90;99.90;;;;;;5082657;28;20040;-74
2021/07/03 01:03:30;;;;;;;11.55;7.88;;;12.90;99.80;;;;;;5081421;28;20051;-74
2021/07/03 01:05:56;;;;;;;9.20;6.80;;;12.90;99.80;;;;;;5062087;28;20043;-73
2021/07/03 01:08:22;;;;;;;11.38;7.72;;;12.90;99.90;;;;;;5082297;28;20040;-73
2021/07/03 01:10:48;;;;;;;8.75;6.78;;;12.90;99.90;;;;;;5046477;28;20495;-73
2021/07/03 01:13:14;;;;;;;6.78;5.88;;;12.90;99.90;;;;;;5081209;28;20055;-73
2021/07/03 01:15:40;;;;;;;5.57;5.07;;;12.90;99.90;;;;;;5080952;28;20086;-74
2021/07/03 01:18:06;;;;;;;6.25;4.47;;;12.80;99.80;;;;;;5077604;28;20118;-74
2021/07/03 01:20:32;;;;;;;4.82;3.78;;;12.70;99.90;;;;;;5062627;28;20058;-73
2021/07/03 01:22:58;;;;;;;5.95;4.00;;;12.60;99.90;;;;;;5098426;28;20109;-74
2021/07/03 01:25:24;;;;;;;5.15;4.47;;;12.60;99.90;;;;;;5078813;28;20071;-74
2021/07/03 01:28:02;;;;;;;8.27;4.25;;;12.50;99.90;;;;;;5078237;28;20040;-74
2021/07/03 01:30:32;;;;;;;7.65;4.72;;;12.50;99.90;;;;;;5079899;28;20931;-73
2021/07/03 01:32:58;;;;;;;7.55;5.53;;;12.50;99.90;;;;;;5081869;28;20465;-73
2021/07/03 01:35:34;;;;;;;8.15;6.38;;;12.50;99.90;;;;;;5079158;28;20040;-74
2021/07/03 01:38:00;;;;;;;7.00;6.30;;;12.50;99.90;;;;;;5082867;28;20479;-73
2021/07/03 01:40:25;;;;;;;6.00;5.25;;;12.50;99.90;;;;;;5082682;28;20123;-74
2021/07/03 01:42:52;;;;;;;8.98;6.10;;;12.50;99.90;;;;;;5080268;28;20444;-73
2021/07/03 01:45:18;;;;;;;6.97;5.68;;;12.50;99.90;;;;;;5044286;28;22499;-73
2021/07/03 01:47:45;;;;;;;6.45;5.40;;;12.50;99.90;;;;;;5079323;28;20040;-74
2021/07/03 01:50:12;;;;;;;10.10;6.25;;;12.40;99.90;;;;;;5080850;28;20036;-73
2021/07/03 01:52:38;;;;;;;8.55;6.70;;;12.40;99.90;;;;;;5061697;28;20033;-73
2021/07/03 01:55:10;;;;;;;9.05;7.10;;;12.40;99.90;;;;;;5083019;28;20039;-74
2021/07/03 01:57:37;;;;;;;9.75;7.75;;;12.30;99.90;;;;;;5086284;28;20040;-73
2021/07/03 02:00:11;;;;;;;8.13;6.80;;;12.30;99.90;;;;;;5086410;28;20047;-74
2021/07/03 02:02:37;;;;;;;8.65;6.78;;;12.30;99.90;;;;;;5066021;28;20518;-74
2021/07/03 02:05:04;;;;;;;11.25;7.40;;;12.30;99.90;;;;;;5080297;28;20043;-74
2021/07/03 02:07:30;;;;;;;10.68;7.45;;;12.20;99.90;;;;;;5085782;28;20040;-74
2021/07/03 02:09:56;;;;;;;8.82;6.70;;;12.30;99.90;;;;;;5069884;28;20062;-74
2021/07/03 02:12:22;;;;;;;13.43;9.27;;;12.30;99.90;;;;;;5085864;28;21556;-74
2021/07/03 02:14:48;;;;;;;11.13;8.88;;;12.20;99.90;;;;;;5075084;28;20132;-73
2021/07/03 02:17:14;;;;;;;14.13;9.70;;;12.20;99.90;;;;;;5081975;28;20667;-73
2021/07/03 02:19:40;;;;;;;11.27;9.52;;;12.20;99.90;;;;;;5077406;28;20039;-73
2021/07/03 02:22:06;;;;;;;10.80;8.60;;;12.10;99.90;;;;;;5069345;28;20040;-74
2021/07/03 02:24:32;;;;;;;13.07;8.90;;;12.10;99.90;;;;;;5049275;28;20063;-74
2021/07/03 02:27:01;;;;;;;9.95;8.05;;;12.00;99.90;;;;;;5086589;28;20051;-75
2021/07/03 02:29:27;;;;;;;11.43;7.93;;;12.00;99.90;;;;;;5085926;28;20126;-75
2021/07/03 02:31:55;;;;;;;12.02;7.88;;;12.00;99.90;;;;;;5086285;28;20040;-75
2021/07/03 02:34:21;;;;;;;16.15;10.80;;;12.00;99.90;;;;;;5087267;28;20065;-76
2021/07/03 02:36:48;;;;;;;7.53;6.72;;;11.90;99.90;;;;;;5085635;28;20131;-76
2021/07/03 02:39:13;;;;;;;11.18;8.20;;;11.90;99.90;;;;;;5085415;28;20380;-75
2021/07/03 02:41:39;;;;;;;8.70;7.80;;;11.90;99.90;;;;;;5088599;28;20032;-75
2021/07/03 02:44:05;;;;;;;10.80;8.18;;;11.90;99.90;;;;;;5083542;28;20116;-75
2021/07/03 02:46:31;;;;;;;11.40;8.88;;;11.90;99.90;;;;;;5063975;28;20043;-75
2021/07/03 02:49:00;;;;;;;10.55;8.82;;;12.00;99.90;;;;;;5048741;28;20150;-75
2021/07/03 02:51:26;;;;;;;10.38;7.45;;;12.00;99.90;;;;;;5085815;28;20148;-74
2021/07/03 02:53:52;;;;;;;9.90;7.35;;;12.00;99.90;;;;;;5084540;28;20086;-75
2021/07/03 02:56:18;;;;;;;10.13;7.35;;;12.00;99.90;;;;;;5086529;28;20042;-74
2021/07/03 02:58:44;;;;;;;9.18;7.13;;;11.90;99.90;;;;;;5067326;28;20036;-75
2021/07/03 03:01:10;;;;;;;9.48;7.95;;;11.90;99.90;;;;;;5081462;28;20075;-74
2021/07/03 03:03:35;;;;;;;11.40;7.38;;;11.90;99.90;;;;;;5085960;28;20044;-74
2021/07/03 03:06:11;;;;;;;15.60;11.23;;;11.90;99.90;;;;;;5085553;28;20040;-74
2021/07/03 03:08:37;;;;;;;12.77;10.38;;;11.90;99.90;;;;;;5082334;28;20414;-74
2021/07/03 03:11:03;;;;;;;13.82;9.73;;;11.90;99.90;;;;;;5069441;28;20169;-74
2021/07/03 03:13:29;;;;;;;25.80;14.60;;;11.80;99.90;;;;;;5082535;28;20134;-74
2021/07/03 03:15:55;;;;;;;21.40;12.15;;;11.80;99.90;;;;;;5081827;28;20040;-73
2021/07/03 03:18:21;;;;;;;11.35;10.15;;;11.70;99.90;;;;;;5070979;28;20042;-73
2021/07/03 03:20:47;;;;;;;12.27;8.85;;;11.70;99.90;;;;;;5085487;28;20387;-73
2021/07/03 03:23:14;;;;;;;12.90;9.00;;;11.70;99.90;;;;;;5087018;28;20036;-73
2021/07/03 03:25:40;;;;;;;11.65;8.55;;;11.80;99.90;;;;;;5088357;28;20040;-73
2021/07/03 03:28:05;;;;;;;8.90;7.75;;;11.80;99.90;;;;;;5078142;28;20039;-73
2021/07/03 03:30:31;;;;;;;16.33;8.25;;;11.90;99.90;;;;;;5088627;28;20877;-80
2021/07/03 03:33:00;;;;;;;10.40;8.52;;;11.80;99.90;;;;;;5084547;28;20040;-80
2021/07/03 03:35:26;;;;;;;10.38;7.07;;;11.90;99.90;;;;;;5085370;28;20040;-80
2021/07/03 03:37:54;;;;;;;9.48;8.20;;;11.90;99.90;;;;;;5077724;28;20043;-80
2021/07/03 03:40:20;;;;;;;9.65;7.78;;;11.80;99.90;;;;;;5083701;28;20048;-80
2021/07/03 03:42:47;;;;;;;9.20;8.25;;;11.80;99.90;;;;;;5085497;28;20202;-73
2021/07/03 03:45:14;;;;;;;15.45;10.80;;;11.80;99.90;;;;;;5082331;28;20112;-73
2021/07/03 03:47:40;;;;;;;17.63;10.05;;;11.90;99.90;;;;;;5086186;28;20036;-72
2021/07/03 03:50:07;;;;;;;16.15;9.90;;;11.80;99.90;;;;;;5084353;28;20563;-72
2021/07/03 03:52:33;;;;;;;17.20;10.38;;;11.80;99.90;;;;;;5061111;28;20060;-73
2021/07/03 03:55:00;;;;;;;14.70;11.70;;;11.80;99.90;;;;;;5081276;28;20475;-80
2021/07/03 03:57:30;;;;;;;12.20;9.85;;;11.80;99.90;;;;;;5084163;28;20044;-72
2021/07/03 03:59:57;;;;;;;21.25;13.30;;;11.80;99.90;;;;;;5083399;28;20089;-73
2021/07/03 04:02:24;;;;;;;26.88;15.48;;;11.80;99.90;;;;;;5095060;28;20043;-73
2021/07/03 04:04:56;;;;;;;25.40;14.82;;;11.90;99.90;;;;;;5081749;28;20044;-72
2021/07/03 04:07:22;;;;;;;12.40;10.93;;;11.90;99.90;;;;;;5079186;28;20050;-73
2021/07/03 04:09:49;;;;;;;13.13;10.40;;;12.00;99.90;;;;;;5083726;28;20050;-73
2021/07/03 04:12:15;;;;;;;14.88;11.20;;;12.00;99.90;;;;;;5084667;28;20513;-73
2021/07/03 04:14:41;;;;;;;12.65;8.77;;;12.10;99.90;;;;;;5083320;28;20107;-74
2021/07/03 04:17:07;;;;;;;10.07;8.27;;;12.10;99.90;;;;;;5079307;28;20604;-74
2021/07/03 04:19:34;;;;;;;10.23;8.85;;;12.10;99.90;;;;;;5080889;28;20052;-73
2021/07/03 04:22:03;;;;;;;13.15;8.88;;;12.10;99.90;;;;;;5080913;28;20032;-73
2021/07/03 04:24:29;;;;;;;11.15;8.70;;;12.10;99.90;;;;;;5085247;28;20040;-73
2021/07/03 04:26:55;;;;;;;14.23;9.77;;;12.20;99.90;;;;;;5082502;28;20524;-73
2021/07/03 04:29:21;;;;;;;11.13;8.43;;;12.20;99.90;;;;;;5090736;28;20036;-73
2021/07/03 04:31:48;;;;;;;13.93;9.65;;;12.30;99.90;;;;;;5084529;28;20180;-73
2021/07/03 04:34:14;;;;;;;14.25;10.55;;;12.30;99.90;;;;;;5080199;28;20044;-73
2021/07/03 04:36:47;;;;;;;12.65;8.68;;;12.30;99.90;;;;;;5082834;28;20061;-73
2021/07/03 04:39:15;;;;;;;11.75;9.13;;;12.40;99.90;;;;;;5079344;28;20066;-74
2021/07/03 04:41:41;;;;;;;15.65;11.93;;;12.40;99.90;;;;;;5085330;28;20120;-74
2021/07/03 04:44:07;;;;;;;16.55;11.80;;;12.40;99.90;;;;;;5082406;28;20105;-74
2021/07/03 04:46:36;;;;;;;13.57;10.52;;;12.50;99.90;;;;;;5095624;28;20058;-74
2021/07/03 04:49:03;;;;;;;13.52;9.90;;;12.40;99.90;;;;;;5075800;28;20473;-74
2021/07/03 04:51:29;;;;;;;13.60;11.38;;;12.50;99.90;;;;;;5093601;28;20074;-74
2021/07/03 04:53:55;;;;;;;15.50;12.27;;;12.50;99.90;;;;;;5083439;28;20365;-75
2021/07/03 04:56:21;;;;;;;18.75;12.98;;;12.60;99.90;;;;;;5084652;28;20692;-73
2021/07/03 04:58:47;;;;;;;17.88;14.20;;;12.70;99.90;;;;;;5082442;28;20067;-74
2021/07/03 05:01:13;;;;;;;21.65;15.88;;;12.80;99.90;;;;;;5081758;28;20064;-74
2021/07/03 05:03:39;;;;;;;20.45;16.08;;;12.90;99.90;;;;;;5080162;28;20410;-73
2021/07/03 05:06:05;;;;;;;19.77;15.50;;;13.00;99.90;;;;;;5085874;28;20470;-73
2021/07/03 05:08:31;;;;;;;19.25;15.57;;;13.20;99.90;;;;;;5067934;28;20115;-73
2021/07/03 05:11:00;;;;;;;21.33;17.08;;;13.30;99.90;;;;;;5085295;28;20735;-75
2021/07/03 05:13:26;;;;;;;21.08;16.63;;;13.50;99.90;;;;;;5085899;28;20067;-74
2021/07/03 05:15:52;;;;;;;22.13;16.20;;;13.60;99.90;;;;;;5081782;28;20124;-74
2021/07/03 05:18:19;;;;;;;25.90;17.25;;;13.80;99.90;;;;;;5067614;28;20051;-74
2021/07/03 05:20:45;;;;;;;22.48;16.67;;;13.90;99.90;;;;;;5079632;28;20118;-74
2021/07/03 05:23:11;;;;;;;21.80;15.85;;;14.00;99.90;;;;;;5078174;28;20036;-74
2021/07/03 05:25:42;;;;;;;19.13;16.13;;;14.20;99.90;;;;;;5079483;28;20047;-75
2021/07/03 05:28:09;;;;;;;18.67;15.20;;;14.30;99.90;;;;;;5079941;28;20036;-74
2021/07/03 05:30:35;;;;;;;20.10;14.57;;;14.50;99.90;;;;;;5078160;28;20626;-74
2021/07/03 05:33:03;;;;;;;16.52;13.75;;;14.60;99.90;;;;;;5079815;28;20044;-74
2021/07/03 05:35:29;;;;;;;20.60;15.23;;;14.70;99.90;;;;;;5080684;28;20036;-73
2021/07/03 05:37:55;;;;;;;20.95;15.50;;;14.80;99.90;;;;;;5075471;28;20040;-82
2021/07/03 05:40:21;;;;;;;19.40;13.27;;;14.90;99.90;;;;;;5077117;28;20502;-83
2021/07/03 05:42:48;;;;;;;17.00;12.48;;;15.00;99.90;;;;;;5080932;28;20139;-83
2021/07/03 05:45:15;;;;;;;17.63;12.68;;;15.10;99.90;;;;;;5059919;28;20055;-82
2021/07/03 05:47:52;;;;;;;17.40;12.55;;;15.20;99.90;;;;;;5079677;28;20050;-81
2021/07/03 05:50:26;;;;;;;16.13;12.35;;;15.30;99.90;;;;;;5080389;28;20098;-81
2021/07/03 05:52:52;;;;;;;16.45;12.68;;;15.30;99.90;;;;;;5078763;28;20036;-82
2021/07/03 05:55:19;;;;;;;16.23;11.77;;;15.30;99.90;;;;;;5063491;28;20074;-82
2021/07/03 05:57:45;;;;;;;18.35;12.55;;;15.40;99.90;;;;;;5081813;28;20044;-82
2021/07/03 06:00:15;;;;;;;20.60;12.52;;;15.50;99.90;;;;;;5064397;28;20518;-82
2021/07/03 06:02:45;;;;;;;18.17;12.40;;;15.60;99.90;;;;;;5062638;28;20058;-81
2021/07/03 06:05:12;;;;;;;16.70;12.77;;;15.80;99.90;;;;;;5075360;28;20038;-82
2021/07/03 06:07:38;;;;;;;13.93;10.38;;;15.90;99.90;;;;;;5081087;28;20036;-82
2021/07/03 06:10:04;;;;;;;17.63;11.05;;;16.00;99.90;;;;;;5080799;28;21254;-81
2021/07/03 06:12:31;;;;;;;13.15;10.40;;;16.10;99.90;;;;;;5058518;28;20052;-82
2021/07/03 06:14:56;;;;;;;13.88;10.75;;;16.10;99.90;;;;;;5079045;28;20051;-82
2021/07/03 06:17:22;;;;;;;17.17;10.05;;;16.20;99.90;;;;;;5079394;28;20036;-82
2021/07/03 06:19:49;;;;;;;13.55;10.25;;;16.30;99.90;;;;;;5061859;28;20036;-74
2021/07/03 06:22:15;;;;;;;12.93;10.98;;;16.40;99.90;;;;;;5081157;28;20059;-74
2021/07/03 06:24:42;;;;;;;14.82;11.32;;;16.60;99.90;;;;;;5079878;28;20451;-73
2021/07/03 06:27:08;;;;;;;18.73;11.55;;;16.70;99.90;;;;;;5082946;28;20135;-72
2021/07/03 06:29:35;;;;;;;18.15;11.75;;;16.80;99.90;;;;;;5061000;28;20045;-73
2021/07/03 06:32:02;;;;;;;14.82;11.18;;;16.80;99.90;;;;;;5079918;28;20048;-73
2021/07/03 06:34:28;;;;;;;16.83;10.63;;;16.80;99.90;;;;;;5076402;28;20119;-73
2021/07/03 06:36:54;;;;;;;13.02;10.32;;;16.80;99.90;;;;;;5077246;28;20172;-73
2021/07/03 06:39:19;;;;;;;15.52;10.25;;;16.90;99.90;;;;;;5078064;28;20044;-73
2021/07/03 06:41:49;;;;;;;12.50;9.25;;;16.90;99.90;;;;;;5080799;28;20044;-73
2021/07/03 06:44:15;;;;;;;10.60;8.52;;;17.00;99.90;;;;;;5071793;28;20048;-73
2021/07/03 06:46:41;;;;;;;13.88;8.73;;;17.00;99.90;;;;;;5079782;28;20036;-74
2021/07/03 06:49:07;;;;;;;16.02;9.75;;;17.10;99.70;;;;;;5079628;28;20123;-74
2021/07/03 06:51:33;;;;;;;14.73;10.15;;;17.20;99.50;;;;;;5072546;28;20036;-74
2021/07/03 06:54:04;;;;;;;12.30;9.07;;;17.30;99.70;;;;;;5090018;28;20112;-74
2021/07/03 06:56:31;;;;;;;12.35;9.25;;;17.40;99.30;;;;;;5075326;28;20041;-74
2021/07/03 06:59:00;;;;;;;13.52;9.25;;;17.50;99.00;;;;;;5073440;28;20095;-74
2021/07/03 07:01:25;;;;;;;14.48;8.70;;;17.50;98.80;;;;;;5061651;28;20041;-74
2021/07/03 07:03:52;;;;;;;11.13;7.30;;;17.50;98.80;;;;;;5072612;28;20101;-74
2021/07/03 07:06:17;;;;;;;12.25;8.95;;;17.60;98.40;;;;;;5071991;28;20032;-74
2021/07/03 07:08:43;;;;;;;11.82;9.65;;;17.70;98.10;;;;;;5072180;28;20047;-74
2021/07/03 07:11:09;;;;;;;14.55;9.13;;;17.80;98.20;;;;;;5078800;28;20131;-75
2021/07/03 07:13:35;;;;;;;14.23;8.50;;;17.90;98.20;;;;;;5060360;28;20131;-74
2021/07/03 07:16:01;;;;;;;11.50;7.22;;;17.90;97.90;;;;;;5072676;28;20578;-74
2021/07/03 07:18:27;;;;;;;13.48;8.35;;;18.00;97.80;;;;;;5073900;28;20736;-74
2021/07/03 07:20:53;;;;;;;13.10;8.82;;;18.00;97.50;;;;;;5065152;28;20104;-74
2021/07/03 07:23:19;;;;;;;10.18;8.32;;;18.10;97.40;;;;;;5073077;28;20127;-74
2021/07/03 07:25:47;;;;;;;12.98;8.75;;;18.00;97.30;;;;;;5091001;28;20036;-74
2021/07/03 07:28:13;;;;;;;13.52;8.80;;;18.00;97.30;;;;;;5084289;28;20040;-74
2021/07/03 07:30:39;;;;;;;13.75;9.60;;;18.00;97.40;;;;;;5069777;28;20141;-75
2021/07/03 07:33:05;;;;;;;13.68;9.65;;;18.00;97.50;;;;;;5084351;28;20173;-75
2021/07/03 07:35:30;;;;;;;14.85;10.00;;;18.00;97.40;;;;;;5077226;28;20051;-75
2021/07/03 07:37:56;;;;;;;14.32;10.55;;;18.00;97.30;;;;;;5082744;28;20037;-74
2021/07/03 07:40:22;;;;;;;12.00;8.57;;;18.00;97.30;;;;;;5073784;28;20041;-74
2021/07/03 07:42:49;;;;;;;13.50;8.98;;;18.10;97.40;;;;;;5077072;28;20064;-74
2021/07/03 07:45:15;;;;;;;12.40;9.40;;;18.10;97.40;;;;;;5072669;28;20054;-74
2021/07/03 07:47:41;;;;;;;14.02;9.70;;;18.20;97.30;;;;;;5063434;28;20047;-74
2021/07/03 07:50:10;;;;;;;14.90;9.43;;;18.20;97.30;;;;;;5073249;28;20606;-74
2021/07/03 07:52:36;;;;;;;17.40;9.32;;;18.20;97.00;;;;;;5072112;28;20052;-74
2021/07/03 07:55:05;;;;;;;14.32;9.68;;;18.20;97.10;;;;;;5060118;28;20066;-74
2021/07/03 07:57:31;;;;;;;12.90;9.77;;;18.30;97.00;;;;;;5058050;28;20066;-74
2021/07/03 08:00:01;;;;;;;12.88;8.52;;;18.30;97.10;;;;;;5078737;28;20067;-74
2021/07/03 08:02:29;;;;;;;13.57;9.65;;;18.40;97.10;;;;;;5073501;28;20190;-75
2021/07/03 08:04:55;;;;;;;12.68;8.38;;;18.50;97.20;;;;;;5062823;28;20047;-74
2021/07/03 08:07:24;;;;;;;14.85;9.52;;;18.60;97.00;;;;;;5061049;28;20406;-74
2021/07/03 08:09:50;;;;;;;12.82;8.60;;;18.70;96.80;;;;;;5072127;28;20089;-74
2021/07/03 08:12:27;;;;;;;17.70;10.35;;;18.80;96.40;;;;;;5067693;28;20094;-75
2021/07/03 08:14:54;;;;;;;14.10;8.80;;;19.00;96.40;;;;;;5073442;28;20435;-74
2021/07/03 08:17:20;;;;;;;13.10;8.63;;;19.20;96.30;;;;;;5070860;28;20105;-74
2021/07/03 08:19:46;;;;;;;13.15;9.63;;;19.30;96.20;;;;;;5074910;28;20061;-75
2021/07/03 08:22:12;;;;;;;13.68;9.45;;;19.50;96.00;;;;;;5073170;28;20541;-75
2021/07/03 08:24:38;;;;;;;11.40;9.18;;;19.70;95.50;;;;;;5077361;28;20127;-74
2021/07/03 08:27:04;;;;;;;12.15;9.27;;;19.90;95.00;;;;;;5077959;28;20125;-74
2021/07/03 08:29:30;;;;;;;15.50;9.38;;;20.00;95.20;;;;;;5071128;28;20701;-75
2021/07/03 08:31:56;;;;;;;13.07;8.90;;;20.20;94.60;;;;;;5067905;28;20032;-75
2021/07/03 08:34:22;;;;;;;13.63;9.40;;;20.30;94.20;;;;;;5073596;28;20119;-74
2021/07/03 08:36:48;;;;;;;10.40;8.35;;;20.50;94.20;;;;;;5072458;28;20667;-74
2021/07/03 08:39:13;;;;;;;14.05;10.73;;;20.60;93.90;;;;;;5077060;28;22387;-74
2021/07/03 08:41:40;;;;;;;13.88;10.45;;;20.60;93.20;;;;;;5053605;28;20551;-73
2021/07/03 08:44:10;;;;;;;12.70;9.68;;;20.60;92.30;;;;;;5069305;28;20040;-74
2021/07/03 08:46:36;;;;;;;11.77;9.60;;;20.60;92.40;;;;;;5083817;28;20962;-74
2021/07/03 08:49:05;;;;;;;14.43;9.82;;;20.60;92.60;;;;;;5073145;28;20495;-75
2021/07/03 08:51:30;;;;;;;12.35;9.43;;;20.80;92.60;;;;;;5072118;28;20040;-74
2021/07/03 08:53:56;;;;;;;13.52;9.23;;;20.90;92.50;;;;;;5044488;28;20047;-74
2021/07/03 08:56:22;;;;;;;13.50;10.27;;;21.00;92.30;;;;;;5039955;28;20055;-75
2021/07/03 08:58:48;;;;;;;11.73;8.48;;;21.10;91.90;;;;;;5070482;28;20044;-75
2021/07/03 09:01:14;;;;;;;16.05;11.88;;;21.10;91.70;;;;;;5058273;28;20040;-74
2021/07/03 09:03:54;;;;;;;16.42;12.57;;;21.20;91.30;;;;;;5071245;28;20046;-74
2021/07/03 09:06:33;;;;;;;16.95;12.77;;;21.30;91.60;;;;;;5074534;28;20047;-74
2021/07/03 09:09:00;;;;;;;16.80;12.68;;;21.50;91.60;;;;;;5087744;28;20047;-75
2021/07/03 09:11:26;;;;;;;14.95;11.70;;;21.60;90.40;;;;;;5070481;28;20123;-75
2021/07/03 09:14:07;;;;;;;14.82;10.75;;;21.60;90.30;;;;;;5077743;28;20067;-76
2021/07/03 09:16:35;;;;;;;19.50;14.80;;;21.60;90.50;;;;;;5073993;28;20528;-75
2021/07/03 09:19:03;;;;;;;16.50;13.77;;;21.70;89.20;;;;;;5069856;28;20049;-74
2021/07/03 09:21:31;;;;;;;16.77;12.68;;;21.70;88.40;;;;;;5077257;28;20044;-76
2021/07/03 09:24:11;;;;;;;16.50;13.30;;;21.80;89.70;;;;;;5073613;28;20032;-75
2021/07/03 09:26:36;;;;;;;;;;;21.90;89.20;;;;;;5075442;28;20406;-76
2021/07/03 09:29:10;;;;;;;16.02;11.50;;;21.90;87.90;;;;;;5071303;28;19930;-75
2021/07/03 09:31:42;;;;;;;16.83;12.65;;;21.70;89.50;;;;;;5091096;28;20072;-74
2021/07/03 09:34:15;;;;;;;16.10;12.88;;;21.50;88.20;;;;;;5075654;28;20048;-75
2021/07/03 09:36:40;;;;;;;17.23;10.93;;;21.40;89.70;;;;;;5087998;28;20043;-74
2021/07/03 09:39:09;;;;;;;13.73;9.57;;;21.50;90.90;;;;;;5057309;28;20690;-74
2021/07/03 09:41:38;;;;;;;13.45;10.65;;;21.90;90.70;;;;;;5073667;28;20040;-75
2021/07/03 09:44:07;;;;;;;16.17;10.70;;;22.20;90.30;;;;;;5075064;28;20422;-74
2021/07/03 09:46:42;;;;;;;14.30;11.35;;;22.30;88.90;;;;;;5088203;28;20044;-74
2021/07/03 09:49:12;;;;;;;15.98;10.40;;;22.40;86.70;;;;;;5069486;28;20029;-74
2021/07/03 09:51:43;;;;;;;12.98;10.13;;;22.40;86.90;;;;;;5070009;28;20044;-76
2021/07/03 09:54:14;;;;;;;13.30;10.05;;;22.30;85.70;;;;;;5070597;28;20047;-75
2021/07/03 09:56:40;;;;;;;13.48;9.57;;;22.20;84.30;;;;;;5073296;28;20131;-75
2021/07/03 09:59:07;;;;;;;13.55;9.55;;;22.20;86.00;;;;;;5059855;28;20062;-75
2021/07/03 10:01:33;;;;;;;11.93;9.40;;;22.20;86.40;;;;;;5060636;28;20041;-76
2021/07/03 10:04:01;;;;;;;11.82;9.68;;;22.10;85.10;;;;;;5067511;28;20119;-75
2021/07/03 10:06:39;;;;;;;11.68;9.45;;;21.90;85.10;;;;;;5077172;28;20048;-76
2021/07/03 10:09:08;;;;;;;10.65;8.73;;;21.70;87.10;;;;;;5071629;28;20040;-75
2021/07/03 10:11:47;;;;;;;12.65;8.60;;;21.80;89.20;;;;;;5078398;28;20075;-75
2021/07/03 10:14:13;;;;;;;11.93;9.50;;;22.10;87.40;;;;;;5067229;28;20064;-74
2021/07/03 10:16:39;;;;;;;10.65;8.05;;;22.40;88.00;;;;;;5087714;28;20136;-74
2021/07/03 10:19:14;;;;;;;9.45;7.30;;;22.80;86.90;;;;;;5071848;28;20045;-75
2021/07/03 10:21:44;;;;;;;10.73;7.63;;;23.10;83.50;;;;;;5091228;28;20042;-74
2021/07/03 10:24:20;;;;;;;12.35;8.43;;;23.30;83.60;;;;;;5074055;28;20036;-75
2021/07/03 10:26:47;;;;;;;10.82;8.82;;;23.20;80.50;;;;;;5072891;28;20035;-75
2021/07/03 10:29:23;;;;;;;11.80;7.30;;;22.90;79.90;;;;;;5060048;28;20039;-75
2021/07/03 10:31:52;;;;;;;10.65;8.60;;;22.60;79.50;;;;;;5072021;28;20062;-75
2021/07/03 10:34:36;;;;;;;12.70;9.57;;;22.50;81.20;;;;;;5090492;28;20044;-75
2021/07/03 10:37:03;;;;;;;11.35;8.48;;;22.60;79.40;;;;;;5076025;28;21031;-75
2021/07/03 10:39:33;;;;;;;14.05;9.27;;;22.50;80.70;;;;;;5043625;28;20045;-76
2021/07/03 10:41:59;;;;;;;10.63;8.40;;;22.30;82.20;;;;;;5072824;28;20032;-76
2021/07/03 10:44:39;;;;;;;13.00;10.10;;;22.20;83.10;;;;;;5073082;28;20047;-75
2021/07/03 10:47:11;;;;;;;11.48;9.20;;;22.30;84.60;;;;;;5075072;28;20066;-75
2021/07/03 10:49:39;;;;;;;11.15;7.90;;;22.60;84.80;;;;;;5074750;28;20060;-75
2021/07/03 10:52:12;;;;;;;11.00;8.57;;;23.00;82.90;;;;;;5064427;28;20059;-75
2021/07/03 10:54:39;;;;;;;9.57;7.90;;;23.30;81.10;;;;;;5073563;28;20044;-75
2021/07/03 10:57:05;;;;;;;11.00;9.27;;;23.50;80.30;;;;;;5079913;28;20048;-75
2021/07/03 10:59:40;;;;;;;12.15;8.57;;;23.70;78.00;;;;;;5071089;28;20180;-75
2021/07/03 11:02:15;;;;;;;10.73;8.68;;;23.70;79.00;;;;;;5073531;28;20403;-76
2021/07/03 11:04:48;;;;;;;10.88;9.48;;;23.80;80.00;;;;;;5075134;28;20040;-75
2021/07/03 11:07:16;;;;;;;10.95;8.07;;;23.70;78.10;;;;;;5074955;28;20442;-75
2021/07/03 11:09:42;;;;;;;10.68;8.13;;;23.50;78.70;;;;;;5076317;28;20032;-76
2021/07/03 11:12:20;;;;;;;13.80;8.23;;;23.20;78.80;;;;;;5079053;28;20048;-75
2021/07/03 11:14:54;;;;;;;13.27;8.30;;;23.20;79.40;;;;;;5089515;28;20048;-76
2021/07/03 11:17:22;;;;;;;9.50;7.28;;;23.40;76.70;;;;;;5072216;28;20123;-76
2021/07/03 11:19:52;;;;;;;9.18;7.20;;;23.60;74.70;;;;;;5079383;28;20039;-78
2021/07/03 11:22:24;;;;;;;10.20;7.18;;;23.80;75.10;;;;;;5078660;28;20074;-76
2021/07/03 11:24:51;;;;;;;9.32;6.95;;;24.10;75.60;;;;;;5083488;28;20039;-75
2021/07/03 11:27:26;;;;;;;7.78;6.20;;;24.30;75.80;;;;;;5079169;28;20036;-76
2021/07/03 11:29:52;;;;;;;8.45;6.35;;;24.40;70.70;;;;;;5081862;28;20663;-75
2021/07/03 11:32:18;;;;;;;6.65;4.70;;;24.50;70.90;;;;;;5085265;28;20090;-76
2021/07/03 11:35:03;;;;;;;7.70;5.07;;;24.60;67.10;;;;;;5084074;28;20036;-76
2021/07/03 11:37:35;;;;;;;7.80;5.38;;;24.70;66.10;;;;;;5099878;28;20050;-76
2021/07/03 11:40:05;;;;;;;7.00;5.63;;;24.80;63.50;;;;;;5084737;28;20088;-75
2021/07/03 11:42:33;;;;;;;8.68;6.45;;;24.80;64.00;;;;;;5081324;28;20043;-76
2021/07/03 11:45:00;;;;;;;8.05;6.10;;;24.80;63.70;;;;;;5098643;28;20446;-75
2021/07/03 11:47:32;;;;;;;8.45;5.72;;;24.80;66.60;;;;;;5081072;28;20040;-76
2021/07/03 11:49:58;;;;;;;9.73;6.55;;;24.90;67.70;;;;;;5082607;28;20040;-76
2021/07/03 11:52:24;;;;;;;8.75;5.88;;;25.10;63.80;;;;;;5081120;28;20036;-76
2021/07/03 11:54:50;;;;;;;7.97;5.63;;;25.10;66.00;;;;;;5084356;28;20505;-76
2021/07/03 11:57:16;;;;;;;7.30;5.53;;;25.20;65.80;;;;;;5075676;28;20038;-76
2021/07/03 11:59:42;;;;;;;7.45;5.93;;;25.20;66.30;;;;;;5077614;28;20041;-75
2021/07/03 12:02:08;;;;;;;8.00;6.13;;;25.30;63.10;;;;;;5079239;28;20040;-75
2021/07/03 12:04:34;;;;;;;7.40;6.30;;;25.30;62.60;;;;;;5086026;28;20074;-76
2021/07/03 12:07:01;;;;;;;11.23;6.05;;;25.30;64.60;;;;;;5085508;28;20545;-76
2021/07/03 12:09:34;;;;;;;10.00;6.68;;;25.30;65.70;;;;;;5086427;28;20048;-76
2021/07/03 12:12:00;;;;;;;7.75;6.32;;;25.40;66.00;;;;;;5084805;28;20124;-76
2021/07/03 12:14:28;;;;;;;8.55;6.60;;;25.50;67.20;;;;;;5075105;28;20481;-76
2021/07/03 12:16:58;;;;;;;8.45;6.88;;;25.60;63.30;;;;;;5085109;28;20139;-77
2021/07/03 12:19:26;;;;;;;10.13;7.40;;;25.60;61.00;;;;;;5083244;28;20044;-76
2021/07/03 12:22:03;;;;;;;7.80;7.00;;;25.50;63.00;;;;;;5077116;28;20072;-77
2021/07/03 12:24:29;;;;;;;8.00;7.05;;;25.50;60.40;;;;;;5082846;28;20455;-76
2021/07/03 12:26:55;;;;;;;8.05;6.07;;;25.50;60.30;;;;;;5081753;28;20120;-74
2021/07/03 12:29:29;;;;;;;7.00;6.00;;;25.50;59.00;;;;;;5083367;28;20109;-74
2021/07/03 12:32:07;;;;;;;8.75;6.60;;;25.60;63.40;;;;;;5080514;28;20611;-74
2021/07/03 12:34:38;;;;;;;7.95;5.80;;;25.50;61.30;;;;;;5096433;28;20129;-75
2021/07/03 12:37:09;;;;;;;10.05;6.20;;;25.40;60.60;;;;;;5065307;28;20044;-74